createdAt,value
2023-05-14T00:02:23.127Z,6.23
2023-05-14T00:07:29.847Z,6.50
2023-05-14T00:12:35.147Z,6.37
2023-05-14T00:17:40.557Z,6.10
2023-05-14T00:22:45.853Z,6.23
2023-05-14T00:27:51.076Z,6.13
2023-05-14T00:32:56.342Z,6.63
2023-05-14T00:38:01.999Z,5.97
2023-05-14T00:43:07.298Z,7.70
2023-05-14T00:48:12.910Z,6.23
2023-05-14T00:53:19.861Z,5.97
2023-05-14T00:58:26.442Z,4.87
2023-05-14T01:03:35.313Z,5.97
2023-05-14T01:08:52.656Z,6.43
2023-05-14T01:14:00.772Z,6.30
2023-05-14T01:19:09.207Z,6.07
2023-05-14T01:30:01.458Z,5.50
2023-05-14T01:35:09.325Z,6.30
2023-05-14T01:40:15.607Z,6.37
2023-05-14T01:45:25.204Z,6.50
2023-05-14T01:50:32.545Z,7.27
2023-05-14T01:55:37.829Z,6.77
2023-05-14T02:00:42.941Z,6.60
2023-05-14T02:05:48.091Z,13.07
2023-05-14T02:10:53.218Z,8.73
2023-05-14T02:15:58.446Z,8.00
2023-05-14T02:21:03.641Z,8.97
2023-05-14T02:26:10.060Z,7.70
2023-05-14T02:31:15.219Z,8.40
2023-05-14T02:36:20.587Z,6.43
2023-05-14T02:41:26.410Z,8.40
2023-05-14T02:46:33.326Z,10.27
2023-05-14T02:51:38.526Z,9.13
2023-05-14T02:56:43.679Z,8.77
2023-05-14T03:01:48.797Z,6.97
2023-05-14T03:06:54.505Z,7.10
2023-05-14T03:11:59.810Z,8.10
2023-05-14T03:17:05.097Z,6.97
2023-05-14T03:22:10.445Z,7.30
2023-05-14T03:27:15.734Z,8.40
2023-05-14T03:32:21.525Z,7.20
2023-05-14T03:37:26.816Z,7.27
2023-05-14T03:42:32.096Z,7.13
2023-05-14T03:47:37.272Z,7.13
2023-05-14T03:52:42.472Z,6.87
2023-05-14T03:57:48.765Z,5.97
2023-05-14T04:02:53.940Z,7.97
2023-05-14T04:07:59.195Z,7.20
2023-05-14T04:13:04.429Z,7.77
2023-05-14T04:18:09.719Z,7.83
2023-05-14T04:23:14.975Z,7.40
2023-05-14T04:28:20.174Z,7.10
2023-05-14T04:33:25.503Z,7.03
2023-05-14T04:38:31.524Z,8.53
2023-05-14T04:43:37.738Z,6.70
2023-05-14T04:48:44.330Z,7.30
2023-05-14T04:53:49.457Z,6.67
2023-05-14T04:58:54.588Z,7.67
2023-05-14T05:03:59.749Z,6.80
2023-05-14T05:09:04.906Z,6.40
2023-05-14T05:14:10.130Z,6.27
2023-05-14T05:19:15.433Z,6.93
2023-05-14T05:24:21.179Z,5.97
2023-05-14T05:29:27.015Z,6.60
2023-05-14T05:34:32.312Z,5.77
2023-05-14T05:39:37.469Z,6.80
2023-05-14T05:44:43.112Z,5.87
2023-05-14T05:49:48.982Z,6.23
2023-05-14T05:54:54.154Z,5.53
2023-05-14T05:59:59.351Z,5.70
2023-05-14T06:05:04.526Z,4.93
2023-05-14T06:10:09.995Z,4.90
2023-05-14T06:15:15.303Z,5.07
2023-05-14T06:20:21.737Z,5.40
2023-05-14T06:25:28.964Z,5.27
2023-05-14T06:30:34.140Z,5.17
2023-05-14T06:35:40.008Z,4.57
2023-05-14T06:40:46.053Z,4.17
2023-05-14T06:45:54.991Z,3.83
2023-05-14T06:51:00.204Z,3.87
2023-05-14T06:56:05.699Z,4.30
2023-05-14T07:01:10.933Z,4.50
2023-05-14T07:06:20.556Z,3.37
2023-05-14T07:11:26.248Z,4.47
2023-05-14T07:16:31.754Z,3.53
2023-05-14T07:21:37.252Z,3.30
2023-05-14T07:26:42.487Z,3.22
2023-05-14T07:31:47.971Z,2.70
2023-05-14T07:36:53.597Z,2.92
2023-05-14T07:42:00.518Z,2.83
2023-05-14T07:47:07.643Z,2.33
2023-05-14T07:52:13.062Z,2.02
2023-05-14T07:57:18.756Z,2.30
2023-05-14T08:02:24.088Z,2.02
2023-05-14T08:07:30.439Z,2.40
2023-05-14T08:12:35.673Z,2.72
2023-05-14T08:17:44.831Z,2.22
2023-05-14T08:22:50.022Z,2.12
2023-05-14T08:27:55.288Z,2.25
2023-05-14T08:33:00.604Z,2.20
2023-05-14T08:38:08.125Z,2.00
2023-05-14T08:43:15.132Z,2.55
2023-05-14T08:48:22.609Z,1.67
2023-05-14T08:53:28.805Z,1.95
2023-05-14T08:58:34.079Z,1.50
2023-05-14T09:03:41.288Z,1.80
2023-05-14T09:08:47.727Z,2.00
2023-05-14T09:13:53.007Z,1.75
2023-05-14T09:18:58.929Z,1.62
2023-05-14T09:24:04.379Z,1.72
2023-05-14T09:29:09.637Z,2.45
2023-05-14T09:34:17.787Z,2.27
2023-05-14T09:39:25.274Z,1.70
2023-05-14T09:44:32.071Z,1.85
2023-05-14T09:49:37.299Z,1.60
2023-05-14T09:54:42.622Z,1.65
2023-05-14T09:59:48.090Z,1.50
2023-05-14T10:04:57.383Z,2.58
2023-05-14T10:10:09.012Z,1.60
2023-05-14T10:15:22.750Z,2.10
2023-05-14T10:20:28.750Z,2.22
2023-05-14T10:25:34.979Z,2.22
2023-05-14T10:30:47.017Z,2.17
2023-05-14T10:35:55.194Z,2.20
2023-05-14T10:41:21.632Z,1.75
2023-05-14T10:46:35.141Z,1.82
2023-05-14T10:51:52.569Z,2.20
2023-05-14T10:57:02.690Z,2.12
2023-05-14T11:02:29.264Z,1.60
2023-05-14T11:07:36.718Z,1.87
2023-05-14T11:12:45.402Z,1.55
2023-05-14T11:17:52.022Z,1.85
2023-05-14T11:22:57.204Z,1.90
2023-05-14T11:28:02.410Z,2.10
2023-05-14T11:33:07.653Z,2.10
2023-05-14T11:38:21.556Z,1.90
2023-05-14T11:43:29.471Z,1.35
2023-05-14T11:48:36.302Z,1.62
2023-05-14T11:53:42.845Z,1.85
2023-05-14T11:58:58.527Z,1.60
2023-05-14T12:04:06.377Z,1.70
2023-05-14T12:09:15.579Z,1.60
2023-05-14T12:14:23.271Z,1.72
2023-05-14T12:19:28.796Z,2.45
2023-05-14T12:24:34.504Z,2.40
2023-05-14T12:29:40.211Z,1.82
2023-05-14T12:34:45.483Z,1.98
2023-05-14T12:39:50.735Z,1.67
2023-05-14T12:44:56.104Z,1.60
2023-05-14T12:50:01.355Z,1.45
2023-05-14T12:55:11.209Z,1.98
2023-05-14T13:00:17.844Z,2.10
2023-05-14T13:05:23.223Z,1.72
2023-05-14T13:10:28.801Z,1.80
2023-05-14T13:15:34.014Z,1.87
2023-05-14T13:20:43.231Z,1.70
2023-05-14T13:25:49.972Z,1.47
2023-05-14T13:31:10.826Z,2.00
2023-05-14T13:36:16.825Z,1.52
2023-05-14T13:41:22.729Z,1.67
2023-05-14T13:46:27.983Z,2.05
2023-05-14T13:51:33.315Z,2.00
2023-05-14T13:56:38.516Z,1.47
2023-05-14T14:01:43.814Z,1.52
2023-05-14T14:06:50.054Z,3.72
2023-05-14T14:12:03.305Z,1.40
2023-05-14T14:17:09.328Z,1.70
2023-05-14T14:22:16.266Z,1.85
2023-05-14T14:27:26.220Z,2.30
2023-05-14T14:32:32.225Z,1.57
2023-05-14T14:37:37.414Z,1.72
2023-05-14T14:42:43.578Z,1.85
2023-05-14T14:47:51.103Z,2.05
2023-05-14T14:52:56.774Z,1.52
2023-05-14T14:58:01.850Z,1.70
2023-05-14T15:03:09.514Z,1.70
2023-05-14T15:08:15.296Z,1.67
2023-05-14T15:13:20.774Z,2.05
2023-05-14T15:18:26.331Z,1.87
2023-05-14T15:23:31.508Z,1.70
2023-05-14T15:28:36.710Z,2.42
2023-05-14T15:33:41.977Z,2.05
2023-05-14T15:38:47.040Z,2.00
2023-05-14T15:43:52.419Z,1.92
2023-05-14T15:48:58.712Z,2.22
2023-05-14T15:54:04.643Z,2.00
2023-05-14T15:59:10.010Z,1.60
2023-05-14T16:04:15.673Z,1.98
2023-05-14T16:09:20.748Z,1.90
2023-05-14T16:14:26.439Z,1.90
2023-05-14T16:19:31.784Z,2.77
2023-05-14T16:24:37.009Z,1.70
2023-05-14T16:29:42.228Z,1.83
2023-05-14T16:34:48.944Z,1.72
2023-05-14T16:39:54.244Z,1.80
2023-05-14T16:44:59.395Z,2.30
2023-05-14T16:50:04.671Z,1.85
2023-05-14T16:55:11.048Z,2.13
2023-05-14T17:00:16.553Z,1.98
2023-05-14T17:05:22.248Z,1.90
2023-05-14T17:10:28.345Z,1.80
2023-05-14T17:15:33.696Z,2.00
2023-05-14T17:20:39.015Z,2.10
2023-05-14T17:25:44.203Z,2.83
2023-05-14T17:30:49.388Z,2.52
2023-05-14T17:35:54.699Z,2.50
2023-05-14T17:40:59.929Z,2.27
2023-05-14T17:46:07.176Z,2.50
2023-05-14T17:51:12.365Z,5.87
2023-05-14T17:56:23.663Z,4.03
2023-05-14T18:01:32.554Z,10.07
2023-05-14T18:06:38.042Z,4.53
2023-05-14T18:11:43.271Z,3.93
2023-05-14T18:16:48.617Z,3.70
2023-05-14T18:21:55.490Z,2.70
2023-05-14T18:27:01.667Z,4.85
2023-05-14T18:32:07.322Z,3.60
2023-05-14T18:37:12.606Z,3.20
2023-05-14T18:42:19.052Z,2.80
2023-05-14T18:47:24.367Z,2.43
2023-05-14T18:52:30.271Z,2.60
2023-05-14T18:57:37.554Z,3.63
2023-05-14T19:02:42.927Z,3.80
2023-05-14T19:07:49.833Z,3.77
2023-05-14T19:12:55.132Z,3.40
2023-05-14T19:18:00.482Z,4.10
2023-05-14T19:23:05.798Z,3.27
2023-05-14T19:28:11.195Z,3.70
2023-05-14T19:33:16.391Z,3.47
2023-05-14T19:38:21.538Z,4.03
2023-05-14T19:43:28.383Z,4.57
2023-05-14T19:48:33.702Z,4.73
2023-05-14T19:53:38.984Z,5.50
2023-05-14T19:58:45.090Z,5.67
2023-05-14T20:03:51.770Z,5.23
2023-05-14T20:08:56.875Z,5.00
2023-05-14T20:14:02.097Z,4.83
2023-05-14T20:19:08.709Z,6.43
2023-05-14T20:24:14.031Z,6.37
2023-05-14T20:29:19.243Z,5.33
2023-05-14T20:34:24.502Z,6.33
2023-05-14T20:39:29.581Z,5.97
2023-05-14T20:44:34.946Z,5.67
2023-05-14T20:49:39.997Z,5.43
2023-05-14T20:54:45.371Z,5.90
2023-05-14T20:59:51.150Z,6.17
2023-05-14T21:04:56.443Z,5.23
2023-05-14T21:10:02.404Z,7.07
2023-05-14T21:15:08.329Z,8.97
2023-05-14T21:20:15.685Z,8.23
2023-05-14T21:25:20.815Z,8.53
2023-05-14T21:30:25.960Z,8.40
2023-05-14T21:35:31.135Z,8.50
2023-05-14T21:40:36.945Z,9.10
2023-05-14T21:45:44.181Z,8.83
2023-05-14T21:50:49.566Z,9.13
2023-05-14T21:55:55.638Z,9.03
2023-05-14T22:01:00.831Z,9.03
2023-05-14T22:06:06.547Z,8.07
2023-05-14T22:11:11.842Z,8.20
2023-05-14T22:16:16.896Z,8.87
2023-05-14T22:21:22.120Z,9.50
2023-05-14T22:26:27.333Z,8.80
2023-05-14T22:31:32.610Z,9.67
2023-05-14T22:36:37.961Z,8.77
2023-05-14T22:41:43.354Z,9.13
2023-05-14T22:46:48.886Z,7.93
2023-05-14T22:51:54.456Z,8.87
2023-05-14T22:56:59.861Z,9.53
2023-05-14T23:02:06.960Z,10.20
2023-05-14T23:07:12.276Z,10.10
2023-05-14T23:12:19.414Z,9.20
2023-05-14T23:17:24.749Z,8.47
2023-05-14T23:22:29.834Z,8.23
2023-05-14T23:27:35.786Z,7.80
2023-05-14T23:32:40.865Z,7.40
2023-05-14T23:37:47.830Z,5.57
2023-05-14T23:42:53.130Z,5.63
2023-05-14T23:48:02.504Z,5.57
2023-05-14T23:53:07.982Z,5.50
2023-05-14T23:58:13.219Z,4.80
